createdAt,value
2022-08-03T00:00:36.577Z,19.32
2022-08-03T00:03:04.744Z,19.28
2022-08-03T00:05:34.052Z,19.25
2022-08-03T00:08:02.513Z,19.33
2022-08-03T00:10:30.630Z,19.32
2022-08-03T00:12:58.768Z,19.30
2022-08-03T00:15:27.118Z,19.19
2022-08-03T00:17:56.560Z,19.19
2022-08-03T00:20:27.673Z,19.20
2022-08-03T00:22:55.791Z,19.14
2022-08-03T00:25:26.726Z,19.11
2022-08-03T00:27:55.106Z,19.08
2022-08-03T00:30:24.210Z,19.07
2022-08-03T00:33:01.972Z,19.04
2022-08-03T00:35:50.027Z,19.00
2022-08-03T00:38:18.991Z,18.93
2022-08-03T00:40:47.463Z,18.94
2022-08-03T00:43:15.879Z,18.88
2022-08-03T00:45:44.586Z,18.89
2022-08-03T00:49:33.289Z,18.83
2022-08-03T00:52:18.225Z,18.84
2022-08-03T00:54:46.702Z,18.80
2022-08-03T00:57:15.197Z,18.71
2022-08-03T00:59:43.450Z,18.73
2022-08-03T01:02:11.445Z,18.72
2022-08-03T01:04:41.065Z,18.68
2022-08-03T01:07:20.976Z,18.64
2022-08-03T01:09:59.632Z,18.62
2022-08-03T01:12:34.055Z,18.52
2022-08-03T01:15:11.346Z,18.43
2022-08-03T01:17:48.190Z,18.38
2022-08-03T01:20:23.497Z,18.30
2022-08-03T01:23:04.219Z,18.24
2022-08-03T01:25:46.910Z,18.17
2022-08-03T01:28:49.114Z,18.12
2022-08-03T01:31:27.091Z,18.19
2022-08-03T01:34:00.727Z,18.10
2022-08-03T01:36:34.929Z,18.18
2022-08-03T01:39:11.466Z,18.15
2022-08-03T01:41:48.925Z,18.16
2022-08-03T01:44:27.653Z,18.20
2022-08-03T01:47:05.312Z,18.10
2022-08-03T01:49:40.501Z,18.18
2022-08-03T01:52:10.033Z,18.15
2022-08-03T01:54:43.040Z,18.15
2022-08-03T01:57:12.536Z,18.15
2022-08-03T01:59:43.144Z,18.13
2022-08-03T02:02:33.043Z,18.07
2022-08-03T02:05:05.788Z,18.01
2022-08-03T02:07:43.267Z,18.07
2022-08-03T02:10:14.157Z,18.07
2022-08-03T02:12:46.005Z,18.04
2022-08-03T02:15:17.122Z,18.02
2022-08-03T02:17:49.788Z,17.96
2022-08-03T02:20:19.472Z,17.90
2022-08-03T02:22:48.535Z,17.86
2022-08-03T02:25:17.329Z,17.82
2022-08-03T02:27:52.163Z,17.80
2022-08-03T02:30:21.286Z,17.75
2022-08-03T02:32:58.939Z,17.74
2022-08-03T02:35:30.902Z,17.76
2022-08-03T02:38:02.369Z,17.71
2022-08-03T02:40:32.118Z,17.66
2022-08-03T02:43:03.662Z,17.67
2022-08-03T02:45:36.183Z,17.62
2022-08-03T02:48:08.329Z,17.58
2022-08-03T02:50:36.557Z,17.61
2022-08-03T02:53:06.471Z,17.56
2022-08-03T02:55:36.648Z,17.50
2022-08-03T02:58:14.687Z,17.43
2022-08-03T03:00:46.237Z,17.42
2022-08-03T03:03:16.152Z,17.38
2022-08-03T03:05:56.116Z,17.35
2022-08-03T03:08:28.875Z,17.36
2022-08-03T03:11:00.445Z,17.31
2022-08-03T03:13:33.871Z,17.28
2022-08-03T03:16:04.836Z,17.23
2022-08-03T03:18:35.723Z,17.23
2022-08-03T03:21:05.808Z,17.17
2022-08-03T03:23:37.671Z,17.11
2022-08-03T03:26:07.033Z,17.07
2022-08-03T03:28:38.637Z,17.09
2022-08-03T03:31:08.095Z,17.17
2022-08-03T03:33:39.262Z,17.21
2022-08-03T03:36:08.432Z,17.20
2022-08-03T03:38:36.678Z,17.20
2022-08-03T03:41:07.364Z,17.20
2022-08-03T03:43:35.849Z,17.18
2022-08-03T03:46:04.242Z,17.18
2022-08-03T03:48:32.380Z,17.24
2022-08-03T03:51:02.696Z,17.47
2022-08-03T03:53:30.846Z,17.48
2022-08-03T03:56:03.091Z,17.58
2022-08-03T03:58:33.828Z,17.64
2022-08-03T04:01:04.131Z,17.70
2022-08-03T04:03:32.262Z,17.70
2022-08-03T04:06:19.708Z,17.72
2022-08-03T04:09:05.074Z,17.71
2022-08-03T04:11:37.814Z,17.72
2022-08-03T04:14:09.121Z,17.65
2022-08-03T04:16:43.675Z,17.65
2022-08-03T04:19:17.486Z,17.67
2022-08-03T04:21:53.177Z,17.72
2022-08-03T04:24:28.177Z,17.73
2022-08-03T04:26:58.747Z,17.79
2022-08-03T04:29:27.739Z,17.83
2022-08-03T04:31:58.877Z,17.84
2022-08-03T04:34:27.195Z,17.86
2022-08-03T04:37:01.033Z,17.89
2022-08-03T04:39:32.788Z,17.98
2022-08-03T04:42:09.074Z,18.07
2022-08-03T04:44:40.668Z,18.16
2022-08-03T04:47:09.106Z,18.23
2022-08-03T04:49:38.699Z,18.28
2022-08-03T04:52:10.290Z,18.36
2022-08-03T04:54:50.675Z,18.42
2022-08-03T04:57:22.760Z,18.51
2022-08-03T05:00:02.122Z,18.57
2022-08-03T05:02:32.976Z,18.66
2022-08-03T05:05:01.287Z,18.74
2022-08-03T05:07:35.737Z,18.86
2022-08-03T05:10:04.894Z,19.03
2022-08-03T05:12:51.593Z,19.23
2022-08-03T05:15:19.765Z,19.48
2022-08-03T05:17:49.099Z,19.78
2022-08-03T05:20:19.138Z,20.31
2022-08-03T05:22:48.640Z,21.11
2022-08-03T05:25:19.883Z,21.86
2022-08-03T05:27:49.464Z,22.63
2022-08-03T05:30:26.759Z,23.24
2022-08-03T05:33:01.748Z,23.81
2022-08-03T05:36:00.819Z,24.41
2022-08-03T05:38:28.753Z,25.06
2022-08-03T05:41:21.755Z,25.66
2022-08-03T05:43:53.618Z,25.52
2022-08-03T05:46:22.261Z,25.61
2022-08-03T05:50:32.902Z,26.14
2022-08-03T05:53:03.401Z,26.06
2022-08-03T05:55:31.957Z,26.31
2022-08-03T05:57:59.966Z,26.78
2022-08-03T06:00:28.206Z,26.49
2022-08-03T06:02:56.215Z,26.56
2022-08-03T06:05:27.204Z,26.41
2022-08-03T06:07:59.152Z,26.46
2022-08-03T06:10:37.165Z,26.85
2022-08-03T06:13:06.357Z,27.11
2022-08-03T06:15:35.483Z,27.20
2022-08-03T06:18:03.417Z,27.93
2022-08-03T06:20:34.449Z,28.14
2022-08-03T06:23:04.578Z,27.91
2022-08-03T06:25:35.799Z,28.25
2022-08-03T06:28:05.147Z,28.54
2022-08-03T06:30:33.511Z,29.02
2022-08-03T06:33:01.639Z,29.60
2022-08-03T06:35:32.313Z,29.92
2022-08-03T06:38:04.665Z,29.79
2022-08-03T06:40:34.199Z,30.47
2022-08-03T06:43:03.949Z,30.43
2022-08-03T06:45:32.336Z,30.42
2022-08-03T06:48:05.473Z,30.91
2022-08-03T06:50:34.506Z,31.49
2022-08-03T06:53:04.694Z,31.40
2022-08-03T06:55:33.279Z,31.62
2022-08-03T06:58:10.085Z,31.82
2022-08-03T07:00:40.521Z,32.53
2022-08-03T07:03:08.922Z,32.96
2022-08-03T07:05:37.088Z,32.29
2022-08-03T07:08:07.963Z,32.78
2022-08-03T07:10:36.071Z,32.91
2022-08-03T07:13:04.641Z,33.06
2022-08-03T07:15:54.384Z,33.07
2022-08-03T07:18:29.343Z,33.54
2022-08-03T07:20:58.402Z,34.75
2022-08-03T07:23:31.071Z,34.39
2022-08-03T07:25:59.081Z,35.45
2022-08-03T07:28:28.209Z,35.61
2022-08-03T07:30:56.239Z,35.57
2022-08-03T07:33:24.740Z,34.95
2022-08-03T07:35:54.895Z,35.01
2022-08-03T07:38:23.097Z,35.66
2022-08-03T07:40:54.859Z,35.66
2022-08-03T07:43:24.428Z,35.63
2022-08-03T07:45:52.493Z,36.17
2022-08-03T07:48:20.856Z,36.72
2022-08-03T07:50:49.110Z,36.44
2022-08-03T07:53:17.745Z,37.53
2022-08-03T07:55:48.029Z,37.39
2022-08-03T07:58:22.091Z,37.73
2022-08-03T08:00:53.146Z,37.69
2022-08-03T08:03:22.017Z,37.92
2022-08-03T08:05:50.083Z,36.10
2022-08-03T08:08:18.516Z,36.18
2022-08-03T08:10:58.396Z,36.75
2022-08-03T08:13:28.515Z,37.83
2022-08-03T08:15:56.577Z,37.22
2022-08-03T08:18:29.676Z,37.33
2022-08-03T08:21:01.499Z,36.72
2022-08-03T08:23:41.795Z,37.71
2022-08-03T08:26:11.670Z,38.39
2022-08-03T08:28:53.225Z,38.05
2022-08-03T08:31:21.512Z,37.59
2022-08-03T08:34:05.287Z,37.26
2022-08-03T08:36:36.513Z,38.51
2022-08-03T08:39:06.962Z,38.49
2022-08-03T08:41:37.376Z,39.18
2022-08-03T08:44:08.233Z,38.88
2022-08-03T08:46:39.459Z,38.50
2022-08-03T08:49:12.160Z,37.02
2022-08-03T08:51:59.611Z,38.19
2022-08-03T08:54:30.728Z,38.28
2022-08-03T08:57:06.648Z,39.26
2022-08-03T08:59:48.275Z,40.05
2022-08-03T09:02:17.865Z,41.70
2022-08-03T09:04:48.919Z,40.23
2022-08-03T09:07:20.718Z,40.93
2022-08-03T09:10:10.508Z,41.50
2022-08-03T09:12:43.236Z,41.03
2022-08-03T09:15:26.855Z,43.40
2022-08-03T09:17:55.368Z,42.44
2022-08-03T09:20:25.468Z,42.76
2022-08-03T09:22:56.539Z,42.65
2022-08-03T09:25:29.976Z,42.28
2022-08-03T09:28:07.666Z,40.91
2022-08-03T09:30:38.159Z,40.35
2022-08-03T09:33:08.974Z,41.62
2022-08-03T09:35:58.267Z,41.80
2022-08-03T09:38:27.681Z,41.96
2022-08-03T09:41:00.018Z,41.66
2022-08-03T09:43:47.768Z,40.93
2022-08-03T09:46:17.292Z,39.88
2022-08-03T09:48:46.081Z,39.76
2022-08-03T09:52:30.260Z,40.99
2022-08-03T09:54:06.481Z,41.99
2022-08-03T09:56:44.975Z,41.36
2022-08-03T09:59:26.030Z,41.28
2022-08-03T10:01:55.934Z,42.57
2022-08-03T10:04:24.617Z,40.98
2022-08-03T10:07:07.430Z,40.54
2022-08-03T10:09:35.957Z,39.84
2022-08-03T10:12:11.593Z,40.56
2022-08-03T10:14:41.814Z,40.95
2022-08-03T10:17:11.800Z,41.24
2022-08-03T10:19:41.090Z,40.49
2022-08-03T10:22:13.859Z,41.11
2022-08-03T10:24:50.736Z,40.22
2022-08-03T10:27:23.439Z,40.54
2022-08-03T10:29:54.704Z,40.88
2022-08-03T10:32:30.000Z,40.61
2022-08-03T10:35:19.105Z,40.54
2022-08-03T10:37:56.893Z,39.42
2022-08-03T10:43:21.745Z,39.85
2022-08-03T10:45:53.179Z,39.60
2022-08-03T10:51:33.905Z,41.83
2022-08-03T10:54:02.219Z,42.36
2022-08-03T10:57:13.585Z,41.43
2022-08-03T11:00:00.627Z,39.92
2022-08-03T11:03:11.774Z,41.66
2022-08-03T11:05:43.585Z,41.97
2022-08-03T11:08:27.934Z,42.41
2022-08-03T11:10:58.436Z,42.32
2022-08-03T11:13:30.999Z,43.08
2022-08-03T11:16:06.559Z,41.70
2022-08-03T11:18:56.483Z,42.24
2022-08-03T11:21:56.474Z,39.75
2022-08-03T11:25:04.674Z,39.65
2022-08-03T11:27:35.365Z,39.50
2022-08-03T11:30:07.572Z,39.39
2022-08-03T11:33:08.724Z,39.86
2022-08-03T11:35:57.315Z,39.51
2022-08-03T11:38:28.213Z,40.44
2022-08-03T11:40:57.751Z,39.54
2022-08-03T11:43:47.511Z,40.48
2022-08-03T11:46:29.406Z,39.27
2022-08-03T11:49:09.792Z,39.53
2022-08-03T11:51:40.373Z,40.11
2022-08-03T11:54:09.060Z,40.34
2022-08-03T11:56:49.330Z,40.04
2022-08-03T11:59:21.568Z,41.06
2022-08-03T12:01:51.325Z,39.16
2022-08-03T12:04:19.471Z,39.69
2022-08-03T12:07:00.284Z,39.05
2022-08-03T12:09:28.435Z,39.07
2022-08-03T12:12:00.486Z,39.73
2022-08-03T12:14:48.748Z,39.18
2022-08-03T12:17:20.472Z,37.95
2022-08-03T12:19:48.977Z,37.41
2022-08-03T12:22:17.790Z,36.27
2022-08-03T12:24:47.799Z,36.58
2022-08-03T12:27:26.568Z,36.68
2022-08-03T12:29:58.304Z,36.77
2022-08-03T12:32:29.838Z,35.89
2022-08-03T12:35:01.953Z,35.19
2022-08-03T12:37:34.040Z,35.77
2022-08-03T12:40:10.054Z,35.38
2022-08-03T12:42:41.168Z,35.87
2022-08-03T12:45:26.521Z,35.65
2022-08-03T12:47:56.472Z,35.10
2022-08-03T12:50:26.623Z,35.04
2022-08-03T12:52:54.935Z,35.13
2022-08-03T12:55:24.586Z,35.74
2022-08-03T12:57:54.028Z,36.12
2022-08-03T13:00:29.386Z,35.35
2022-08-03T13:03:38.472Z,35.84
2022-08-03T13:05:51.075Z,36.11
2022-08-03T13:08:20.844Z,36.12
2022-08-03T13:10:51.804Z,35.74
2022-08-03T13:13:39.796Z,35.41
2022-08-03T13:16:08.248Z,35.48
2022-08-03T13:18:38.791Z,35.49
2022-08-03T13:21:09.374Z,35.67
2022-08-03T13:23:37.562Z,35.27
2022-08-03T13:26:08.311Z,35.32
2022-08-03T13:28:37.840Z,34.85
2022-08-03T13:31:08.498Z,35.10
2022-08-03T13:33:40.402Z,35.03
2022-08-03T13:36:09.251Z,34.92
2022-08-03T13:38:37.318Z,34.80
2022-08-03T13:41:05.807Z,34.95
2022-08-03T13:43:33.976Z,34.87
2022-08-03T13:46:03.497Z,35.18
2022-08-03T13:48:37.081Z,35.51
2022-08-03T13:51:11.794Z,35.28
2022-08-03T13:53:51.410Z,35.13
2022-08-03T13:56:22.312Z,35.14
2022-08-03T13:58:50.332Z,35.39
2022-08-03T14:01:34.357Z,35.52
2022-08-03T14:04:17.541Z,35.27
2022-08-03T14:06:50.227Z,35.16
2022-08-03T14:09:18.394Z,34.64
2022-08-03T14:12:07.701Z,34.91
2022-08-03T14:14:38.023Z,34.78
2022-08-03T14:17:07.853Z,34.92
2022-08-03T14:19:52.781Z,34.93
2022-08-03T14:22:22.004Z,35.11
2022-08-03T14:24:50.022Z,35.01
2022-08-03T14:27:22.196Z,34.92
2022-08-03T14:29:50.363Z,34.57
2022-08-03T14:32:22.206Z,34.40
2022-08-03T14:34:50.263Z,34.37
2022-08-03T14:37:18.679Z,34.57
2022-08-03T14:40:03.447Z,34.49
2022-08-03T14:42:34.177Z,34.63
2022-08-03T14:45:06.009Z,34.54
2022-08-03T14:50:29.531Z,34.45
2022-08-03T14:50:40.067Z,34.16
2022-08-03T14:53:13.761Z,34.10
2022-08-03T14:55:50.354Z,34.06
2022-08-03T14:58:20.963Z,34.12
2022-08-03T15:00:50.715Z,34.24
2022-08-03T15:03:23.845Z,34.33
2022-08-03T15:05:52.913Z,34.47
2022-08-03T15:08:24.795Z,34.23
2022-08-03T15:10:53.521Z,34.23
2022-08-03T15:13:22.753Z,34.14
2022-08-03T15:15:53.246Z,33.95
2022-08-03T15:18:25.491Z,34.00
2022-08-03T15:20:53.529Z,33.90
2022-08-03T15:23:22.709Z,33.84
2022-08-03T15:26:06.570Z,33.88
2022-08-03T15:28:39.099Z,33.86
2022-08-03T15:31:07.609Z,33.88
2022-08-03T15:33:38.501Z,33.87
2022-08-03T15:36:06.911Z,33.96
2022-08-03T15:38:37.654Z,33.78
2022-08-03T15:41:05.706Z,33.73
2022-08-03T15:43:39.244Z,33.69
2022-08-03T15:46:31.511Z,33.73
2022-08-03T15:52:33.277Z,33.80
2022-08-03T15:55:04.357Z,33.74
2022-08-03T15:57:32.871Z,33.81
2022-08-03T16:00:01.474Z,33.88
2022-08-03T16:02:29.628Z,33.89
2022-08-03T16:04:57.625Z,33.94
2022-08-03T16:07:40.339Z,33.89
2022-08-03T16:10:30.448Z,33.84
2022-08-03T16:13:01.734Z,33.91
2022-08-03T16:15:30.028Z,33.92
2022-08-03T16:18:00.632Z,34.01
2022-08-03T16:20:34.083Z,33.97
2022-08-03T16:23:11.048Z,34.03
2022-08-03T16:25:44.369Z,33.98
2022-08-03T16:28:20.357Z,33.85
2022-08-03T16:30:48.518Z,33.87
2022-08-03T16:33:17.912Z,33.89
2022-08-03T16:35:46.675Z,33.88
2022-08-03T16:38:18.885Z,33.86
2022-08-03T16:40:51.842Z,33.83
2022-08-03T16:43:23.260Z,33.87
2022-08-03T16:45:52.162Z,33.78
2022-08-03T16:48:20.497Z,33.74
2022-08-03T16:50:49.163Z,33.71
2022-08-03T16:53:33.533Z,33.60
2022-08-03T16:56:10.811Z,33.58
2022-08-03T16:58:42.235Z,33.51
2022-08-03T17:01:24.015Z,33.49
2022-08-03T17:04:01.201Z,33.46
2022-08-03T17:06:36.551Z,33.39
2022-08-03T17:09:10.136Z,33.39
2022-08-03T17:11:47.280Z,33.33
2022-08-03T17:14:17.441Z,33.26
2022-08-03T17:16:54.332Z,33.25
2022-08-03T17:19:24.607Z,33.20
2022-08-03T17:21:58.394Z,33.14
2022-08-03T17:24:32.172Z,33.12
2022-08-03T17:27:04.446Z,33.00
2022-08-03T17:29:45.100Z,32.98
2022-08-03T17:32:21.111Z,33.01
2022-08-03T17:34:49.962Z,32.95
2022-08-03T17:37:49.937Z,32.98
2022-08-03T17:40:17.393Z,32.96
2022-08-03T17:42:50.773Z,32.87
2022-08-03T17:45:19.508Z,32.78
2022-08-03T17:47:57.305Z,32.77
2022-08-03T17:50:34.279Z,32.68
2022-08-03T17:53:15.439Z,32.58
2022-08-03T17:56:04.776Z,32.46
2022-08-03T17:58:53.417Z,32.33
2022-08-03T18:01:59.587Z,32.43
2022-08-03T18:04:35.653Z,32.31
2022-08-03T18:07:11.654Z,32.25
2022-08-03T18:10:06.129Z,32.15
2022-08-03T18:12:51.824Z,32.12
2022-08-03T18:15:28.642Z,31.98
2022-08-03T18:18:02.134Z,31.89
2022-08-03T18:20:41.011Z,31.84
2022-08-03T18:23:25.366Z,31.76
2022-08-03T18:26:02.179Z,31.76
2022-08-03T18:28:33.606Z,31.69
2022-08-03T18:31:06.030Z,31.61
2022-08-03T18:34:17.195Z,31.50
2022-08-03T18:36:30.269Z,31.47
2022-08-03T18:39:02.946Z,31.38
2022-08-03T18:41:34.781Z,31.37
2022-08-03T18:44:08.886Z,31.37
2022-08-03T18:46:57.750Z,31.20
2022-08-03T18:49:41.301Z,31.11
2022-08-03T18:52:17.573Z,30.94
2022-08-03T18:55:02.839Z,30.83
2022-08-03T18:57:49.828Z,30.73
2022-08-03T19:00:24.926Z,30.58
2022-08-03T19:03:20.660Z,30.36
2022-08-03T19:06:14.472Z,30.22
2022-08-03T19:08:55.733Z,30.20
2022-08-03T19:14:28.810Z,30.09
2022-08-03T19:17:06.665Z,30.09
2022-08-03T19:19:44.569Z,30.00
2022-08-03T19:22:19.679Z,29.94
2022-08-03T19:24:49.385Z,29.78
2022-08-03T19:27:26.961Z,29.57
2022-08-03T19:30:02.018Z,29.38
2022-08-03T19:32:34.118Z,29.22
2022-08-03T19:35:13.334Z,29.02
2022-08-03T19:37:47.626Z,28.93
2022-08-03T19:40:19.915Z,28.83
2022-08-03T19:42:51.754Z,28.69
2022-08-03T19:46:04.863Z,28.60
2022-08-03T19:48:23.340Z,28.44
2022-08-03T19:50:59.793Z,28.34
2022-08-03T19:53:35.188Z,28.27
2022-08-03T19:56:06.370Z,28.23
2022-08-03T19:58:34.888Z,28.16
2022-08-03T20:01:21.345Z,28.25
2022-08-03T20:03:51.223Z,28.17
2022-08-03T20:06:24.482Z,28.07
2022-08-03T20:08:54.843Z,28.16
2022-08-03T20:11:28.679Z,28.39
2022-08-03T20:13:59.022Z,28.30
2022-08-03T20:16:27.408Z,28.48
2022-08-03T20:18:56.047Z,28.58
2022-08-03T20:21:28.485Z,28.52
2022-08-03T20:24:03.020Z,28.42
2022-08-03T20:26:53.872Z,28.25
2022-08-03T20:30:05.139Z,28.15
2022-08-03T20:32:18.388Z,28.07
2022-08-03T20:34:49.408Z,27.93
2022-08-03T20:37:18.935Z,27.92
2022-08-03T20:39:48.109Z,27.83
2022-08-03T20:42:22.086Z,27.86
2022-08-03T20:45:04.482Z,27.79
2022-08-03T20:47:36.444Z,27.79
2022-08-03T20:56:26.030Z,27.73
2022-08-03T20:58:56.801Z,27.72
2022-08-03T21:01:36.276Z,27.64
2022-08-03T21:04:06.758Z,27.63
2022-08-03T21:06:39.602Z,27.49
2022-08-03T21:09:20.615Z,27.35
2022-08-03T21:11:53.254Z,27.15
2022-08-03T21:13:07.722Z,27.79
2022-08-03T21:13:08.339Z,30.22
2022-08-03T21:14:26.775Z,27.09
2022-08-03T21:16:56.800Z,27.02
2022-08-03T21:19:27.003Z,26.99
2022-08-03T21:21:56.432Z,27.04
2022-08-03T21:24:27.304Z,26.96
2022-08-03T21:26:55.835Z,26.81
2022-08-03T21:29:24.721Z,26.69
2022-08-03T21:31:52.887Z,26.53
2022-08-03T21:34:21.738Z,26.41
2022-08-03T21:36:50.189Z,26.28
2022-08-03T21:39:20.988Z,26.18
2022-08-03T21:41:50.326Z,26.04
2022-08-03T21:44:25.120Z,25.92
2022-08-03T21:46:59.976Z,25.79
2022-08-03T21:50:05.757Z,25.74
2022-08-03T21:52:24.599Z,25.63
2022-08-03T21:55:05.471Z,25.52
2022-08-03T21:57:37.639Z,25.41
2022-08-03T22:00:14.637Z,25.38
2022-08-03T22:02:45.849Z,25.30
2022-08-03T22:05:28.912Z,25.21
2022-08-03T22:08:12.019Z,25.11
2022-08-03T22:10:40.466Z,25.03
2022-08-03T22:13:09.872Z,24.94
2022-08-03T22:15:38.178Z,24.87
2022-08-03T22:18:08.582Z,24.80
2022-08-03T22:20:37.456Z,24.71
2022-08-03T22:23:09.079Z,24.65
2022-08-03T22:25:40.437Z,24.55
2022-08-03T22:28:14.993Z,24.45
2022-08-03T22:30:43.905Z,24.39
2022-08-03T22:33:12.996Z,24.34
2022-08-03T22:35:47.487Z,24.31
2022-08-03T22:38:17.155Z,24.23
2022-08-03T22:40:48.154Z,24.18
2022-08-03T22:43:17.995Z,24.10
2022-08-03T22:46:09.363Z,24.01
2022-08-03T22:48:41.041Z,23.99
2022-08-03T22:51:10.829Z,23.93
2022-08-03T22:53:40.483Z,23.90
2022-08-03T22:56:09.069Z,23.84
2022-08-03T22:58:38.424Z,23.85
2022-08-03T23:01:11.104Z,23.92
2022-08-03T23:03:59.763Z,23.95
2022-08-03T23:06:35.560Z,23.90
2022-08-03T23:09:10.668Z,23.88
2022-08-03T23:11:45.590Z,23.81
2022-08-03T23:14:19.545Z,23.81
2022-08-03T23:16:48.841Z,23.86
2022-08-03T23:19:25.183Z,23.80
2022-08-03T23:22:02.538Z,23.72
2022-08-03T23:24:35.846Z,23.64
2022-08-03T23:27:05.477Z,23.58
2022-08-03T23:29:38.422Z,23.53
2022-08-03T23:32:08.178Z,23.44
2022-08-03T23:34:56.627Z,23.38
2022-08-03T23:37:26.107Z,23.30
2022-08-03T23:39:55.772Z,23.22
2022-08-03T23:42:27.402Z,23.14
2022-08-03T23:45:04.702Z,23.03
2022-08-03T23:47:46.648Z,23.01
2022-08-03T23:50:16.015Z,22.93
2022-08-03T23:52:56.773Z,22.89
2022-08-03T23:55:41.433Z,22.80
2022-08-03T23:58:20.301Z,22.74
